Volgoneft-207 — UABC3 — position and weather

sailwx.info

Track history (hours):
 
Tides and Currents Weather Stations Pressure Air Temp Water Temp Dewpoint Dewpoint Depression Visibility Wind Speed Wind Dir Waves Ship Positions

Volgoneft-207

Last reported at 2018-Jun-06 20:03 UTC. Time now 2018-Jun-18 11:19 UTC.
Position N 45°30' E 036°44'.
Warning: this ship's position is 11 days out of date.

Length 132 m; draft 3.6 m.

Type: Tanker. MMSI: 273448590.

Date/timePositionNaut miles runAvg speedWind from/ knotsBaromVisibWave heightAir tempDewpointWater temp
2018-Jun-06 20:03N 45°30' E 036°44'1 6.8
2018-Jun-06 19:58N 45°30' E 036°43'4 7.2
2018-Jun-06 19:28N 45°26' E 036°41'4 7.8
2018-Jun-06 19:00N 45°23' E 036°41'3 6.6
2018-Jun-06 18:30N 45°20' E 036°38'5 7.7
2018-Jun-06 17:55N 45°19' E 036°31'3 5.6
2018-Jun-06 17:24N 45°16' E 036°29'2 3.8
2018-Jun-06 16:55N 45°15' E 036°29'1 0.4
2018-Jun-06 15:24N 45°14' E 036°30'0 0.0
2018-Jun-06 14:58N 45°14' E 036°30'0 0.0
2018-Jun-06 14:28N 45°14' E 036°30'0 0.0
2018-Jun-06 13:59N 45°14' E 036°30'0 0.0
2018-Jun-06 13:28N 45°14' E 036°30'0 0.0
2018-Jun-06 13:00N 45°14' E 036°30'0 0.0
2018-Jun-06 12:29N 45°14' E 036°30'0 0.0
2018-Jun-06 12:00N 45°14' E 036°30'0 0.0
2018-Jun-06 11:29N 45°14' E 036°30'0 0.0
2018-Jun-06 11:00N 45°14' E 036°30'0 0.0
2018-Jun-06 10:30N 45°14' E 036°30'0 0.0
2018-Jun-06 10:00N 45°14' E 036°30'0 0.0
2018-Jun-06 09:30N 45°14' E 036°30'0 0.0
2018-Jun-06 09:00N 45°14' E 036°30'2 3.2
2018-Jun-06 08:29N 45°13' E 036°31'4 7.9
2018-Jun-06 07:58N 45°09' E 036°31'3 0.2
2018-Jun-05 17:03N 45°06' E 036°35'2 4.7
2018-Jun-05 16:33N 45°08' E 036°32'0 0.3
2018-Jun-05 15:41N 45°08' E 036°32'0 0.0
2018-Jun-05 15:28N 45°08' E 036°32'0 0.0
2018-Jun-05 14:42N 45°08' E 036°32'0 0.0
2018-Jun-05 14:29N 45°08' E 036°32'0 0.0
2018-Jun-05 14:00N 45°08' E 036°32'0 0.0
2018-Jun-05 13:30N 45°08' E 036°32'0 0.0
2018-Jun-05 13:00N 45°08' E 036°32'0 0.0
2018-Jun-05 12:30N 45°08' E 036°32'0 0.0
2018-Jun-05 11:53N 45°08' E 036°32'0 0.0
2018-Jun-05 11:30N 45°08' E 036°32'0 0.0
2018-Jun-05 11:00N 45°08' E 036°32'0 0.0
2018-Jun-05 10:30N 45°08' E 036°32'0 0.0
2018-Jun-05 10:00N 45°08' E 036°32'0 0.0
2018-Jun-05 09:30N 45°08' E 036°32'0 0.0
2018-Jun-05 08:58N 45°08' E 036°32'0 0.0
2018-Jun-05 08:30N 45°08' E 036°32'0 0.0
2018-Jun-05 08:00N 45°08' E 036°32'0 0.0
2018-Jun-05 07:30N 45°08' E 036°32'0 0.0
2018-Jun-05 06:57N 45°08' E 036°32'0 0.0
2018-Jun-05 06:30N 45°08' E 036°32'0 0.0
2018-Jun-05 06:00N 45°08' E 036°32'0 0.0
2018-Jun-05 05:30N 45°08' E 036°32'0 0.0
2018-Jun-05 04:59N 45°08' E 036°32'0 0.0
2018-Jun-05 04:29N 45°08' E 036°32'0 0.0
2018-Jun-05 03:59N 45°08' E 036°32'0 0.0
2018-Jun-05 03:27N 45°08' E 036°32'1 1.6
2018-Jun-05 03:00N 45°08' E 036°31'3 5.4
2018-Jun-05 02:23N 45°11' E 036°28'2 6.2
2018-Jun-05 02:00N 45°13' E 036°28'3 5.9
2018-Jun-05 01:30N 45°16' E 036°28'3 5.2
2018-Jun-05 01:00N 45°18' E 036°30'3 5.8
2018-Jun-05 00:30N 45°19' E 036°34'2 3.9
2018-Jun-05 00:00N 45°20' E 036°37'3 5.1
2018-Jun-04 23:30N 45°21' E 036°40'2 4.1
2018-Jun-04 23:00N 45°23' E 036°41'2 4.1
2018-Jun-04 22:30N 45°25' E 036°41'2 3.9
2018-Jun-04 22:00N 45°27' E 036°42'3 5.4
2018-Jun-04 21:26N 45°29' E 036°45'1 1.5
2018-Jun-04 21:00N 45°30' E 036°45'0 0.0
2018-Jun-04 20:22N 45°30' E 036°45'0 0.0
2018-Jun-04 19:38N 45°30' E 036°45'0 0.0
2018-Jun-04 19:19N 45°30' E 036°45'0 0.0
2018-Jun-04 18:59N 45°30' E 036°45'0 0.0
2018-Jun-04 16:50N 45°30' E 036°45'0 0.0
2018-Jun-04 16:24N 45°30' E 036°45'0 0.0
2018-Jun-04 16:00N 45°30' E 036°45'0 0.0
2018-Jun-04 15:29N 45°30' E 036°45'0 0.0
2018-Jun-04 15:00N 45°30' E 036°45'0 0.0
2018-Jun-04 14:30N 45°30' E 036°45'0 0.0
2018-Jun-04 13:59N 45°30' E 036°45'0 0.0
2018-Jun-04 13:30N 45°30' E 036°45'0 0.0
2018-Jun-04 13:00N 45°30' E 036°45'0 0.0
2018-Jun-04 12:30N 45°30' E 036°45'0 0.0
2018-Jun-04 12:00N 45°30' E 036°45'0 0.0
2018-Jun-04 11:17N 45°30' E 036°45'0 0.0
2018-Jun-04 11:00N 45°30' E 036°45'0 0.0
2018-Jun-04 10:27N 45°30' E 036°45'0 0.0
2018-Jun-04 10:00N 45°30' E 036°45'0 0.0
2018-Jun-04 09:29N 45°30' E 036°45'0 0.0
2018-Jun-04 08:59N 45°30' E 036°45'0 0.0
2018-Jun-04 08:30N 45°30' E 036°45'0 0.0
2018-Jun-04 08:00N 45°30' E 036°45'0 0.0
2018-Jun-04 07:30N 45°30' E 036°45'0 0.0
2018-Jun-04 07:00N 45°30' E 036°45'0 0.0
2018-Jun-04 06:30N 45°30' E 036°45'0 0.0
2018-Jun-04 06:00N 45°30' E 036°45'0 0.0
2018-Jun-04 05:29N 45°30' E 036°45'0 0.0
2018-Jun-04 05:00N 45°30' E 036°45'0 0.0
2018-Jun-04 04:30N 45°30' E 036°45'0 0.0
2018-Jun-04 04:00N 45°30' E 036°45'0 0.1
2018-Jun-04 03:30N 45°30' E 036°45'0 0.0
2018-Jun-04 02:59N 45°30' E 036°45'0 0.0
2018-Jun-04 02:28N 45°30' E 036°45'0 0.0
2018-Jun-04 02:00N 45°30' E 036°45'0 0.0
2018-Jun-04 01:30N 45°30' E 036°45'0 0.0
2018-Jun-04 01:00N 45°30' E 036°45'0 0.0
2018-Jun-04 00:30N 45°30' E 036°45'0 0.0
2018-Jun-04 00:00N 45°30' E 036°45'0 0.0
2018-Jun-03 23:30N 45°30' E 036°45'0 0.0
2018-Jun-03 22:58N 45°30' E 036°45'0 0.0
2018-Jun-03 22:29N 45°30' E 036°45'0 0.0
2018-Jun-03 22:00N 45°30' E 036°45'0 0.0
2018-Jun-03 21:29N 45°30' E 036°45'0 0.0
2018-Jun-03 20:22N 45°30' E 036°45'0 0.1
2018-Jun-03 20:00N 45°30' E 036°45'0 0.0
2018-Jun-03 15:49N 45°30' E 036°45'0 0.0
2018-Jun-03 14:37N 45°30' E 036°45'0 1.9
2018-Jun-03 14:30N 45°30' E 036°45'2 3.4
2018-Jun-03 13:59N 45°31' E 036°45'  
Track history (hours):
 
Tides and Currents Weather Stations Pressure Air Temp Water Temp Dewpoint Dewpoint Depression Visibility Wind Speed Wind Dir Waves Ship Positions

Volgoneft-207

Last reported at 2018-Jun-06 20:03 UTC. Time now 2018-Jun-18 11:19 UTC.
Position N 45°30' E 036°44'.
Warning: this ship's position is 11 days out of date.

Length 132 m; draft 3.6 m.

Type: Tanker. MMSI: 273448590.

Date/timePositionNaut miles runAvg speedWind from/ knotsBaromVisibWave heightAir tempDewpointWater temp
2018-Jun-06 20:03N 45°30' E 036°44'1 6.8
2018-Jun-06 19:58N 45°30' E 036°43'4 7.2
2018-Jun-06 19:28N 45°26' E 036°41'4 7.8
2018-Jun-06 19:00N 45°23' E 036°41'3 6.6
2018-Jun-06 18:30N 45°20' E 036°38'5 7.7
2018-Jun-06 17:55N 45°19' E 036°31'3 5.6
2018-Jun-06 17:24N 45°16' E 036°29'2 3.8
2018-Jun-06 16:55N 45°15' E 036°29'1 0.4
2018-Jun-06 15:24N 45°14' E 036°30'0 0.0
2018-Jun-06 14:58N 45°14' E 036°30'0 0.0
2018-Jun-06 14:28N 45°14' E 036°30'0 0.0
2018-Jun-06 13:59N 45°14' E 036°30'0 0.0
2018-Jun-06 13:28N 45°14' E 036°30'0 0.0
2018-Jun-06 13:00N 45°14' E 036°30'0 0.0
2018-Jun-06 12:29N 45°14' E 036°30'0 0.0
2018-Jun-06 12:00N 45°14' E 036°30'0 0.0
2018-Jun-06 11:29N 45°14' E 036°30'0 0.0
2018-Jun-06 11:00N 45°14' E 036°30'0 0.0
2018-Jun-06 10:30N 45°14' E 036°30'0 0.0
2018-Jun-06 10:00N 45°14' E 036°30'0 0.0
2018-Jun-06 09:30N 45°14' E 036°30'0 0.0
2018-Jun-06 09:00N 45°14' E 036°30'2 3.2
2018-Jun-06 08:29N 45°13' E 036°31'4 7.9
2018-Jun-06 07:58N 45°09' E 036°31'3 0.2
2018-Jun-05 17:03N 45°06' E 036°35'2 4.7
2018-Jun-05 16:33N 45°08' E 036°32'0 0.3
2018-Jun-05 15:41N 45°08' E 036°32'0 0.0
2018-Jun-05 15:28N 45°08' E 036°32'0 0.0
2018-Jun-05 14:42N 45°08' E 036°32'0 0.0
2018-Jun-05 14:29N 45°08' E 036°32'0 0.0
2018-Jun-05 14:00N 45°08' E 036°32'0 0.0
2018-Jun-05 13:30N 45°08' E 036°32'0 0.0
2018-Jun-05 13:00N 45°08' E 036°32'0 0.0
2018-Jun-05 12:30N 45°08' E 036°32'0 0.0
2018-Jun-05 11:53N 45°08' E 036°32'0 0.0
2018-Jun-05 11:30N 45°08' E 036°32'0 0.0
2018-Jun-05 11:00N 45°08' E 036°32'0 0.0
2018-Jun-05 10:30N 45°08' E 036°32'0 0.0
2018-Jun-05 10:00N 45°08' E 036°32'0 0.0
2018-Jun-05 09:30N 45°08' E 036°32'0 0.0
2018-Jun-05 08:58N 45°08' E 036°32'0 0.0
2018-Jun-05 08:30N 45°08' E 036°32'0 0.0
2018-Jun-05 08:00N 45°08' E 036°32'0 0.0
2018-Jun-05 07:30N 45°08' E 036°32'0 0.0
2018-Jun-05 06:57N 45°08' E 036°32'0 0.0
2018-Jun-05 06:30N 45°08' E 036°32'0 0.0
2018-Jun-05 06:00N 45°08' E 036°32'0 0.0
2018-Jun-05 05:30N 45°08' E 036°32'0 0.0
2018-Jun-05 04:59N 45°08' E 036°32'0 0.0
2018-Jun-05 04:29N 45°08' E 036°32'0 0.0
2018-Jun-05 03:59N 45°08' E 036°32'0 0.0
2018-Jun-05 03:27N 45°08' E 036°32'1 1.6
2018-Jun-05 03:00N 45°08' E 036°31'3 5.4
2018-Jun-05 02:23N 45°11' E 036°28'2 6.2
2018-Jun-05 02:00N 45°13' E 036°28'3 5.9
2018-Jun-05 01:30N 45°16' E 036°28'3 5.2
2018-Jun-05 01:00N 45°18' E 036°30'3 5.8
2018-Jun-05 00:30N 45°19' E 036°34'2 3.9
2018-Jun-05 00:00N 45°20' E 036°37'3 5.1
2018-Jun-04 23:30N 45°21' E 036°40'2 4.1
2018-Jun-04 23:00N 45°23' E 036°41'2 4.1
2018-Jun-04 22:30N 45°25' E 036°41'2 3.9
2018-Jun-04 22:00N 45°27' E 036°42'3 5.4
2018-Jun-04 21:26N 45°29' E 036°45'1 1.5
2018-Jun-04 21:00N 45°30' E 036°45'0 0.0
2018-Jun-04 20:22N 45°30' E 036°45'0 0.0
2018-Jun-04 19:38N 45°30' E 036°45'0 0.0
2018-Jun-04 19:19N 45°30' E 036°45'0 0.0
2018-Jun-04 18:59N 45°30' E 036°45'0 0.0
2018-Jun-04 16:50N 45°30' E 036°45'0 0.0
2018-Jun-04 16:24N 45°30' E 036°45'0 0.0
2018-Jun-04 16:00N 45°30' E 036°45'0 0.0
2018-Jun-04 15:29N 45°30' E 036°45'0 0.0
2018-Jun-04 15:00N 45°30' E 036°45'0 0.0
2018-Jun-04 14:30N 45°30' E 036°45'0 0.0
2018-Jun-04 13:59N 45°30' E 036°45'0 0.0
2018-Jun-04 13:30N 45°30' E 036°45'0 0.0
2018-Jun-04 13:00N 45°30' E 036°45'0 0.0
2018-Jun-04 12:30N 45°30' E 036°45'0 0.0
2018-Jun-04 12:00N 45°30' E 036°45'0 0.0
2018-Jun-04 11:17N 45°30' E 036°45'0 0.0
2018-Jun-04 11:00N 45°30' E 036°45'0 0.0
2018-Jun-04 10:27N 45°30' E 036°45'0 0.0
2018-Jun-04 10:00N 45°30' E 036°45'0 0.0
2018-Jun-04 09:29N 45°30' E 036°45'0 0.0
2018-Jun-04 08:59N 45°30' E 036°45'0 0.0
2018-Jun-04 08:30N 45°30' E 036°45'0 0.0
2018-Jun-04 08:00N 45°30' E 036°45'0 0.0
2018-Jun-04 07:30N 45°30' E 036°45'0 0.0
2018-Jun-04 07:00N 45°30' E 036°45'0 0.0
2018-Jun-04 06:30N 45°30' E 036°45'0 0.0
2018-Jun-04 06:00N 45°30' E 036°45'0 0.0
2018-Jun-04 05:29N 45°30' E 036°45'0 0.0
2018-Jun-04 05:00N 45°30' E 036°45'0 0.0
2018-Jun-04 04:30N 45°30' E 036°45'0 0.0
2018-Jun-04 04:00N 45°30' E 036°45'0 0.1
2018-Jun-04 03:30N 45°30' E 036°45'0 0.0
2018-Jun-04 02:59N 45°30' E 036°45'0 0.0
2018-Jun-04 02:28N 45°30' E 036°45'0 0.0
2018-Jun-04 02:00N 45°30' E 036°45'0 0.0
2018-Jun-04 01:30N 45°30' E 036°45'0 0.0
2018-Jun-04 01:00N 45°30' E 036°45'0 0.0
2018-Jun-04 00:30N 45°30' E 036°45'0 0.0
2018-Jun-04 00:00N 45°30' E 036°45'0 0.0
2018-Jun-03 23:30N 45°30' E 036°45'0 0.0
2018-Jun-03 22:58N 45°30' E 036°45'0 0.0
2018-Jun-03 22:29N 45°30' E 036°45'0 0.0
2018-Jun-03 22:00N 45°30' E 036°45'0 0.0
2018-Jun-03 21:29N 45°30' E 036°45'0 0.0
2018-Jun-03 20:22N 45°30' E 036°45'0 0.1
2018-Jun-03 20:00N 45°30' E 036°45'0 0.0
2018-Jun-03 15:49N 45°30' E 036°45'0 0.0
2018-Jun-03 14:37N 45°30' E 036°45'0 1.9
2018-Jun-03 14:30N 45°30' E 036°45'2 3.4
2018-Jun-03 13:59N 45°31' E 036°45'  

Dump ship's entire track history